Almeria, NE

5:08 AM CDT on July 30, 2016 (GMT -0500)
Sharp | | Change Station

Elev 2070 ft 41.62 °N, 98.95 °W | Updated 15 minutes ago

Rain
Rain Mist
63 °F
Feels Like 63 °F
N
5
Wind Variable Wind from NE

Today
High -- | Low -- °F
--% Chance of Precip.
Yesterday
High -- | Low -- °F
Precip. -- in
Pressure 30.00 in
Visibility 5.0 miles
Clouds Scattered Clouds 4600 ft
Mostly Cloudy 6000 ft
Overcast 7500 ft
Dew Point 60 °F
Humidity 90%
Rainfall 0.24 in
Snow Depth Not available.
6:30 AM 8:57 PM
Waning Crescent, 14% visible
METAR KODX 300953Z AUTO 04004KT 5SM VCTS RA BR SCT046 BKN060 OVC075 17/16 A3002 RMK AO2 LTG DSNT W AND NW TSB0857E12B18E45 SLP158 P0018 T01720156
Pressure 30.00 in
Visibility 5.0 miles
Clouds Scattered Clouds 4600 ft
Mostly Cloudy 6000 ft
Overcast 7500 ft
Dew Point 60 °F
Humidity 90%
Rainfall 0.24 in
Snow Depth Not available.
6:30 AM 8:57 PM
Waning Crescent, 14% visible
METAR KODX 300953Z AUTO 04004KT 5SM VCTS RA BR SCT046 BKN060 OVC075 17/16 A3002 RMK AO2 LTG DSNT W AND NW TSB0857E12B18E45 SLP158 P0018 T01720156

10-Day Weather Forecast

Almanac

Astronomy

Jul. 30, 2016 Rise Set
Actual Time
Civil Twilight
Nautical Twilight
Astronomical Twilight
Moon
Length of Visible Light
Length of Day
Tomorrow will be .
, % of the Moon is Illuminated

Today's Extremes

State Highs State Lows

Community

WunderPhotos

Upload Photos

1,928,528 photos uploaded!

WunderBlog® & News

Nearby

Air Quality

  Air Quality AQ Index Pollutant
Not available.

Snow Depth

Station Depth Elevation

Earthquake Activity

City Distance Mag. Time & Date
Minimum magnitude displayed is 2.5.

Coastal Water Temperatures

Place Temperature

Stations

Nearby Weather Stations

Station Location Temp. Windchill Dew Point Humidity Wind Precip. Elev Updated Type
                   

Watches & Warnings

There are currently no watches in effect.